Time;durP1;ratioP1;P1;durP2;ratioP2;P2;SDS_P1;SDS_P2;PMS_P1;PMS_P2;Temp;Humidity;BMP_temperature;BMP_pressure;BME280_temperature;BME280_humidity;BME280_pressure;Samples;Min_cycle;Max_cycle;Signal;HPM_P1;HPM_P2
2022/02/26 00:00:26;;;;;;;7.50;3.33;;;2.00;99.90;;;;;;5070019;28;20306;-85
2022/02/26 00:02:53;;;;;;;6.03;3.97;;;2.00;99.90;;;;;;5062930;28;20227;-85
2022/02/26 00:05:20;;;;;;;4.00;3.20;;;1.80;99.90;;;;;;5068045;28;20226;-86
2022/02/26 00:07:47;;;;;;;3.22;3.03;;;;;;;;;;5070245;28;20239;-85
2022/02/26 00:10:14;;;;;;;8.27;3.97;;;1.80;99.90;;;;;;5069676;28;20615;-85
2022/02/26 00:12:41;;;;;;;3.40;2.90;;;1.50;99.90;;;;;;5070631;28;20284;-86
2022/02/26 00:15:09;;;;;;;5.72;3.22;;;2.00;99.90;;;;;;5071011;28;20256;-84
2022/02/26 00:17:37;;;;;;;4.03;3.10;;;1.70;99.90;;;;;;5072597;28;20260;-85
2022/02/26 00:20:11;;;;;;;8.82;4.22;;;1.70;99.90;;;;;;5071682;28;20722;-85
2022/02/26 00:22:40;;;;;;;5.45;3.05;;;1.80;99.90;;;;;;5069955;28;20203;-85
2022/02/26 00:25:12;;;;;;;5.47;3.15;;;;;;;;;;5069444;28;20192;-87
2022/02/26 00:27:46;;;;;;;2.63;2.42;;;2.00;99.90;;;;;;5064989;28;20223;-86
2022/02/26 00:30:14;;;;;;;8.95;2.88;;;;;;;;;;5067318;28;20291;-86
2022/02/26 00:32:42;;;;;;;4.30;2.67;;;;;;;;;;5069066;28;20215;-86
2022/02/26 00:35:13;;;;;;;3.78;3.35;;;;;;;;;;5068476;28;20276;-86
2022/02/26 00:37:40;;;;;;;7.72;3.15;;;;;;;;;;5068500;28;20674;-85
2022/02/26 00:40:11;;;;;;;10.57;3.17;;;2.20;99.90;;;;;;5068560;28;20192;-86
2022/02/26 00:42:40;;;;;;;5.20;2.80;;;2.90;99.90;;;;;;5068545;28;20253;-85
2022/02/26 00:45:10;;;;;;;3.15;2.85;;;2.20;99.90;;;;;;5068822;28;20192;-84
2022/02/26 00:47:37;;;;;;;6.03;2.65;;;2.70;99.90;;;;;;5066523;28;20199;-87
2022/02/26 00:50:06;;;;;;;4.25;2.90;;;2.30;99.90;;;;;;5068576;28;20199;-86
2022/02/26 00:52:34;;;;;;;6.72;2.83;;;2.30;99.90;;;;;;5068135;28;20206;-86
2022/02/26 00:55:01;;;;;;;8.80;3.30;;;2.20;99.90;;;;;;5068264;28;20207;-85
2022/02/26 00:57:29;;;;;;;2.70;2.50;;;2.40;99.90;;;;;;5068074;28;20615;-85
2022/02/26 00:59:56;;;;;;;8.00;3.38;;;2.20;99.90;;;;;;5067851;28;20205;-85
2022/02/26 01:02:24;;;;;;;6.75;2.78;;;2.30;99.90;;;;;;5068524;28;20199;-86
2022/02/26 01:04:51;;;;;;;3.40;2.83;;;2.10;99.90;;;;;;5068132;28;20219;-85
2022/02/26 01:07:20;;;;;;;4.47;3.58;;;1.90;99.90;;;;;;5067402;28;20199;-85
2022/02/26 01:09:48;;;;;;;12.40;4.10;;;2.50;99.90;;;;;;5068240;28;20200;-86
2022/02/26 01:12:16;;;;;;;3.90;3.00;;;1.80;99.90;;;;;;5068795;28;20908;-85
2022/02/26 01:14:45;;;;;;;4.72;3.55;;;2.40;99.90;;;;;;5068401;28;20203;-85
2022/02/26 01:17:16;;;;;;;6.95;4.78;;;2.80;99.90;;;;;;5067611;28;20200;-85
2022/02/26 01:19:44;;;;;;;8.30;3.75;;;2.50;99.90;;;;;;5067917;28;20286;-86
2022/02/26 01:22:12;;;;;;;3.58;2.88;;;2.30;99.90;;;;;;5068341;28;20211;-86
2022/02/26 01:24:41;;;;;;;9.20;3.70;;;2.10;99.90;;;;;;5061778;28;20223;-86
2022/02/26 01:27:09;;;;;;;4.07;3.67;;;2.30;99.90;;;;;;5066680;28;20614;-85
2022/02/26 01:29:37;;;;;;;4.47;3.65;;;2.20;99.90;;;;;;5067816;28;20198;-85
2022/02/26 01:32:06;;;;;;;4.05;3.65;;;2.20;99.90;;;;;;5067393;28;20229;-85
2022/02/26 01:34:34;;;;;;;4.68;3.35;;;2.40;99.90;;;;;;5068069;28;20203;-85
2022/02/26 01:37:01;;;;;;;5.72;3.55;;;2.50;99.90;;;;;;5067165;28;20964;-85
2022/02/26 01:39:30;;;;;;;3.70;2.97;;;2.40;99.90;;;;;;5066881;28;20219;-85
2022/02/26 01:41:59;;;;;;;7.88;4.40;;;2.40;99.90;;;;;;5056015;28;20252;-85
2022/02/26 01:44:26;;;;;;;6.75;4.15;;;2.30;99.90;;;;;;5067387;28;20613;-86
2022/02/26 01:46:53;;;;;;;4.18;3.20;;;2.50;99.90;;;;;;5066463;28;20204;-85
2022/02/26 01:49:20;;;;;;;4.13;2.97;;;;;;;;;;5067500;28;20199;-86
2022/02/26 01:51:48;;;;;;;5.53;3.85;;;3.20;99.90;;;;;;5067271;28;20637;-85
2022/02/26 01:54:15;;;;;;;6.68;3.35;;;2.30;99.90;;;;;;5066960;28;20206;-85
2022/02/26 01:56:42;;;;;;;6.05;4.10;;;2.70;99.90;;;;;;5066850;28;20195;-85
2022/02/26 01:59:10;;;;;;;4.70;3.13;;;2.30;99.90;;;;;;5067362;28;20241;-85
2022/02/26 02:01:37;;;;;;;7.03;3.15;;;2.10;99.90;;;;;;5066897;28;20566;-86
2022/02/26 02:04:05;;;;;;;4.25;3.85;;;2.50;99.90;;;;;;5054186;28;20638;-86
2022/02/26 02:06:33;;;;;;;7.78;4.18;;;2.50;99.90;;;;;;5066772;28;20207;-85
2022/02/26 02:09:00;;;;;;;4.45;3.05;;;2.60;99.90;;;;;;5067030;28;21028;-84
2022/02/26 02:11:30;;;;;;;5.10;3.05;;;2.40;99.90;;;;;;5067464;28;20276;-84
2022/02/26 02:13:57;;;;;;;6.65;4.07;;;2.50;99.90;;;;;;5067716;28;20289;-84
2022/02/26 02:16:27;;;;;;;4.28;3.30;;;;;;;;;;5066720;28;20204;-86
2022/02/26 02:18:54;;;;;;;4.05;2.90;;;2.40;99.90;;;;;;5060736;28;20306;-85
2022/02/26 02:21:21;;;;;;;4.53;3.45;;;2.50;99.90;;;;;;5066902;28;20195;-85
2022/02/26 02:23:50;;;;;;;6.90;4.20;;;2.80;99.90;;;;;;5067345;28;20237;-87
2022/02/26 02:26:18;;;;;;;6.07;3.83;;;2.30;99.90;;;;;;5066677;28;20238;-84
2022/02/26 02:28:45;;;;;;;7.13;4.20;;;1.80;99.90;;;;;;5067322;28;20278;-85
2022/02/26 02:31:14;;;;;;;4.60;3.55;;;2.30;99.90;;;;;;5066615;28;20230;-86
2022/02/26 02:33:45;;;;;;;5.10;3.75;;;2.20;99.90;;;;;;5066765;28;20209;-85
2022/02/26 02:36:12;;;;;;;4.25;3.10;;;;;;;;;;5066433;28;20317;-85
2022/02/26 02:38:40;;;;;;;3.80;3.45;;;2.30;99.90;;;;;;5067430;28;20226;-86
2022/02/26 02:41:09;;;;;;;5.93;4.05;;;2.30;99.90;;;;;;5067054;28;20293;-84
2022/02/26 02:43:36;;;;;;;6.65;4.05;;;2.30;99.90;;;;;;5067843;28;20629;-86
2022/02/26 02:46:04;;;;;;;7.20;4.30;;;2.50;99.90;;;;;;5066554;28;20195;-86
2022/02/26 02:48:31;;;;;;;7.75;3.90;;;;;;;;;;5066439;28;20914;-85
2022/02/26 02:50:58;;;;;;;5.07;3.80;;;2.30;99.90;;;;;;5067087;28;20673;-86
2022/02/26 02:53:29;;;;;;;6.57;4.25;;;2.30;99.90;;;;;;5067208;28;20257;-85
2022/02/26 02:55:56;;;;;;;3.97;3.38;;;2.20;99.90;;;;;;5066989;28;20200;-85
2022/02/26 02:58:26;;;;;;;6.97;3.53;;;2.20;99.90;;;;;;5066454;28;20199;-86
2022/02/26 03:00:54;;;;;;;9.35;4.38;;;2.20;99.90;;;;;;5066756;28;20211;-85
2022/02/26 03:03:21;;;;;;;16.00;4.32;;;2.20;99.90;;;;;;5066485;28;20245;-84
2022/02/26 03:05:48;;;;;;;5.40;4.78;;;2.30;99.90;;;;;;5067344;28;20282;-84
2022/02/26 03:08:15;;;;;;;6.75;4.55;;;2.10;99.90;;;;;;5066273;28;20290;-85
2022/02/26 03:10:42;;;;;;;11.20;5.80;;;2.10;99.90;;;;;;5067382;28;20203;-85
2022/02/26 03:13:09;;;;;;;7.68;4.45;;;0.00;99.90;;;;;;5060247;28;20227;-85
2022/02/26 03:15:38;;;;;;;8.60;5.13;;;2.20;99.90;;;;;;5069072;28;20526;-86
2022/02/26 03:18:04;;;;;;;9.00;5.60;;;2.00;99.90;;;;;;5069960;28;20230;-85
2022/02/26 03:20:31;;;;;;;7.68;5.35;;;2.90;99.90;;;;;;5070900;28;20282;-86
2022/02/26 03:22:58;;;;;;;6.65;4.70;;;2.30;99.90;;;;;;5070521;28;20608;-85
2022/02/26 03:25:25;;;;;;;15.98;5.18;;;2.20;99.90;;;;;;5070758;28;20199;-85
2022/02/26 03:27:52;;;;;;;8.65;4.65;;;;;;;;;;5070100;28;20532;-85
2022/02/26 03:30:19;;;;;;;7.13;5.05;;;2.20;99.90;;;;;;5070340;28;20199;-85
2022/02/26 03:32:48;;;;;;;6.55;4.80;;;2.20;99.90;;;;;;5070502;28;20231;-86
2022/02/26 03:35:15;;;;;;;13.02;5.68;;;;;;;;;;5070715;28;20225;-84
2022/02/26 03:37:42;;;;;;;11.07;4.82;;;2.50;99.90;;;;;;5070653;28;20298;-86
2022/02/26 03:40:11;;;;;;;6.85;4.30;;;2.30;99.90;;;;;;5070556;28;20223;-85
2022/02/26 03:42:38;;;;;;;7.30;4.93;;;2.40;99.90;;;;;;5071735;28;20215;-84
2022/02/26 03:45:06;;;;;;;7.68;5.07;;;2.50;99.90;;;;;;5072875;28;20227;-85
2022/02/26 03:47:33;;;;;;;8.48;4.65;;;2.50;99.90;;;;;;5069993;28;20238;-85
2022/02/26 03:50:02;;;;;;;6.30;4.53;;;3.00;99.90;;;;;;5068793;28;20725;-85
2022/02/26 03:52:29;;;;;;;8.20;5.18;;;2.00;99.90;;;;;;5069862;28;20247;-84
2022/02/26 03:54:56;;;;;;;6.68;3.97;;;;;;;;;;5069177;28;20282;-85
2022/02/26 03:57:24;;;;;;;10.27;4.50;;;2.10;99.90;;;;;;5069412;28;20511;-86
2022/02/26 03:59:50;;;;;;;9.73;4.75;;;2.20;99.90;;;;;;5069712;28;20507;-85
2022/02/26 04:02:18;;;;;;;4.97;4.45;;;2.10;99.90;;;;;;5067494;28;20294;-85
2022/02/26 04:04:45;;;;;;;9.38;4.70;;;2.20;99.90;;;;;;5066905;28;20324;-85
2022/02/26 04:07:13;;;;;;;7.75;4.65;;;;;;;;;;5069473;28;20203;-85
2022/02/26 04:09:40;;;;;;;8.70;5.40;;;2.10;99.90;;;;;;5063017;28;20302;-84
2022/02/26 04:12:08;;;;;;;7.60;5.07;;;2.00;99.90;;;;;;5070030;28;20254;-85
2022/02/26 04:14:36;;;;;;;5.72;4.95;;;;;;;;;;5070128;28;20257;-86
2022/02/26 04:17:03;;;;;;;8.00;4.60;;;3.00;99.90;;;;;;5068698;28;20196;-84
2022/02/26 04:19:30;;;;;;;7.13;5.43;;;;;;;;;;5070229;28;20281;-85
2022/02/26 04:21:57;;;;;;;23.13;5.03;;;;;;;;;;5060949;28;20284;-85
2022/02/26 04:24:26;;;;;;;14.20;3.80;;;1.80;99.90;;;;;;5070476;28;20202;-85
2022/02/26 04:26:53;;;;;;;4.90;4.38;;;2.00;99.90;;;;;;5067703;28;20191;-85
2022/02/26 04:29:20;;;;;;;7.63;4.35;;;;;;;;;;5070203;28;20199;-86
2022/02/26 04:31:47;;;;;;;11.18;5.53;;;1.80;99.90;;;;;;5069888;28;20318;-85
2022/02/26 04:34:14;;;;;;;12.60;5.22;;;1.40;99.90;;;;;;5069601;28;20295;-86
2022/02/26 04:36:40;;;;;;;6.20;4.93;;;1.00;99.90;;;;;;5068034;28;20195;-86
2022/02/26 04:39:08;;;;;;;8.48;4.97;;;1.90;99.90;;;;;;5069220;28;20227;-85
2022/02/26 04:41:37;;;;;;;10.52;5.55;;;1.80;99.90;;;;;;5069122;28;20203;-85
2022/02/26 04:44:04;;;;;;;13.10;4.32;;;2.00;99.90;;;;;;5068769;28;20241;-86
2022/02/26 04:46:31;;;;;;;8.32;4.53;;;2.10;99.90;;;;;;5068047;28;20196;-85
2022/02/26 04:48:58;;;;;;;6.40;4.03;;;1.80;99.90;;;;;;5068569;28;20231;-86
2022/02/26 04:51:24;;;;;;;12.43;4.65;;;1.90;99.90;;;;;;5068854;28;20246;-86
2022/02/26 04:53:51;;;;;;;7.30;4.25;;;1.80;99.90;;;;;;5069196;28;20226;-85
2022/02/26 04:56:18;;;;;;;7.28;5.30;;;1.90;99.90;;;;;;5068753;28;20280;-85
2022/02/26 04:58:46;;;;;;;9.25;5.03;;;1.90;99.90;;;;;;5068708;28;20214;-85
2022/02/26 05:01:13;;;;;;;8.32;4.85;;;1.70;99.90;;;;;;5069286;28;20245;-85
2022/02/26 05:03:41;;;;;;;5.35;4.10;;;1.80;99.90;;;;;;5061814;28;20223;-86
2022/02/26 05:06:07;;;;;;;13.07;5.00;;;1.90;99.90;;;;;;5068506;28;20195;-85
2022/02/26 05:08:35;;;;;;;6.93;5.30;;;;;;;;;;5068580;28;20278;-85
2022/02/26 05:11:02;;;;;;;7.65;4.15;;;1.80;99.90;;;;;;5069161;28;20275;-85
2022/02/26 05:13:30;;;;;;;6.20;4.05;;;;;;;;;;5068648;28;20230;-85
2022/02/26 05:15:58;;;;;;;11.48;5.22;;;1.90;99.90;;;;;;5068777;28;20684;-85
2022/02/26 05:18:25;;;;;;;14.10;6.18;;;;;;;;;;5067130;28;20609;-85
2022/02/26 05:20:52;;;;;;;6.18;4.85;;;1.70;99.90;;;;;;5067479;28;20291;-85
2022/02/26 05:23:19;;;;;;;5.88;4.80;;;;;;;;;;5068907;28;20199;-85
2022/02/26 05:25:46;;;;;;;8.18;5.32;;;2.00;99.90;;;;;;5068712;28;20557;-85
2022/02/26 05:28:13;;;;;;;7.30;4.03;;;;;;;;;;5068145;28;20192;-86
2022/02/26 05:30:41;;;;;;;7.18;4.28;;;;;;;;;;5068197;28;20231;-84
2022/02/26 05:33:09;;;;;;;20.05;4.85;;;2.50;99.90;;;;;;5067564;28;20314;-86
2022/02/26 05:35:36;;;;;;;12.88;5.35;;;2.10;99.90;;;;;;5068073;28;20199;-85
2022/02/26 05:38:03;;;;;;;8.98;5.97;;;;;;;;;;5067379;28;20291;-85
2022/02/26 05:40:30;;;;;;;10.18;5.50;;;;;;;;;;5067405;28;20205;-86
2022/02/26 05:42:57;;;;;;;9.13;4.18;;;2.20;99.90;;;;;;5067951;28;20284;-84
2022/02/26 05:45:24;;;;;;;10.40;5.10;;;2.90;99.90;;;;;;5067881;28;20517;-85
2022/02/26 05:47:51;;;;;;;9.68;4.88;;;2.10;99.90;;;;;;5067548;28;20715;-86
2022/02/26 05:50:19;;;;;;;10.73;5.53;;;2.30;99.90;;;;;;5068294;28;20276;-86
2022/02/26 05:52:46;;;;;;;8.43;5.35;;;;;;;;;;5068364;28;20754;-86
2022/02/26 05:55:13;;;;;;;7.72;4.55;;;2.30;99.90;;;;;;5068188;28;20252;-85
2022/02/26 05:57:40;;;;;;;7.90;4.75;;;;;;;;;;5066139;28;20619;-86
2022/02/26 06:00:09;;;;;;;20.67;5.40;;;2.50;99.90;;;;;;5063061;28;20282;-87
2022/02/26 06:02:36;;;;;;;6.60;4.53;;;2.50;99.90;;;;;;5068016;28;20661;-86
2022/02/26 06:05:03;;;;;;;11.77;5.43;;;2.40;99.90;;;;;;5067977;28;20199;-85
2022/02/26 06:07:31;;;;;;;10.48;5.50;;;2.30;99.90;;;;;;5067438;28;20195;-85
2022/02/26 06:09:58;;;;;;;6.35;4.95;;;2.30;99.90;;;;;;5068149;28;20286;-86
2022/02/26 06:12:25;;;;;;;7.95;5.20;;;;;;;;;;5068220;28;20689;-85
2022/02/26 06:14:52;;;;;;;12.13;6.57;;;2.40;99.90;;;;;;5067588;28;20711;-85
2022/02/26 06:17:19;;;;;;;17.10;6.60;;;2.30;99.90;;;;;;5067363;28;20192;-86
2022/02/26 06:19:46;;;;;;;8.10;5.30;;;2.40;99.90;;;;;;5068466;28;20207;-85
2022/02/26 06:22:13;;;;;;;9.48;6.70;;;;;;;;;;5067391;28;20227;-84
2022/02/26 06:24:42;;;;;;;8.00;5.40;;;2.50;99.90;;;;;;5068145;28;20627;-86
2022/02/26 06:27:09;;;;;;;12.65;6.40;;;;;;;;;;5066627;28;20274;-85
2022/02/26 06:29:36;;;;;;;15.45;6.07;;;;;;;;;;5063509;28;20297;-84
2022/02/26 06:32:03;;;;;;;9.48;5.97;;;2.40;99.90;;;;;;5065843;28;20649;-85
2022/02/26 06:34:30;;;;;;;14.07;7.45;;;2.20;99.90;;;;;;5067867;28;20697;-84
2022/02/26 06:36:57;;;;;;;13.38;6.95;;;;;;;;;;5066721;28;20223;-85
2022/02/26 06:39:24;;;;;;;16.63;7.30;;;2.10;99.90;;;;;;5067485;28;20206;-85
2022/02/26 06:41:53;;;;;;;8.30;6.60;;;2.20;99.90;;;;;;5067587;28;20644;-84
2022/02/26 06:44:19;;;;;;;9.15;6.72;;;2.10;99.90;;;;;;5067847;28;20203;-85
2022/02/26 06:46:47;;;;;;;14.88;6.50;;;2.00;99.90;;;;;;5067313;28;20635;-85
2022/02/26 06:49:14;;;;;;;9.07;6.10;;;2.20;99.90;;;;;;5068667;28;20199;-85
2022/02/26 06:51:41;;;;;;;10.73;6.60;;;2.20;99.90;;;;;;5071856;28;20284;-84
2022/02/26 06:54:09;;;;;;;11.60;6.40;;;;;;;;;;5071078;28;20242;-84
2022/02/26 06:56:36;;;;;;;8.98;5.65;;;;;;;;;;5070494;28;20320;-85
2022/02/26 06:59:04;;;;;;;16.50;7.10;;;2.10;99.90;;;;;;5071725;28;20223;-86
2022/02/26 07:01:31;;;;;;;9.35;6.40;;;1.90;99.90;;;;;;5070362;28;20272;-85
2022/02/26 07:03:58;;;;;;;10.40;6.95;;;2.40;99.90;;;;;;5071487;28;20250;-85
2022/02/26 07:06:25;;;;;;;12.52;7.65;;;2.20;99.90;;;;;;5070808;28;20253;-85
2022/02/26 07:08:53;;;;;;;8.20;6.57;;;1.80;99.90;;;;;;5071816;28;20257;-84
2022/02/26 07:11:20;;;;;;;11.65;5.97;;;2.30;99.90;;;;;;5071401;28;20203;-85
2022/02/26 07:13:46;;;;;;;22.75;8.00;;;2.30;99.90;;;;;;5072182;28;20231;-83
2022/02/26 07:16:15;;;;;;;7.43;6.30;;;2.10;99.90;;;;;;5071609;28;20196;-84
2022/02/26 07:18:42;;;;;;;9.27;6.30;;;2.30;99.90;;;;;;5072208;28;20199;-84
2022/02/26 07:21:09;;;;;;;12.10;7.28;;;2.40;99.90;;;;;;5070236;28;20276;-85
2022/02/26 07:23:35;;;;;;;10.32;5.72;;;2.40;99.90;;;;;;5071001;28;20739;-84
2022/02/26 07:26:03;;;;;;;14.60;8.68;;;;;;;;;;5069862;28;20837;-85
2022/02/26 07:28:30;;;;;;;14.38;7.80;;;2.50;99.90;;;;;;5070361;28;20750;-85
2022/02/26 07:30:57;;;;;;;18.45;7.90;;;2.10;99.90;;;;;;5070948;28;20253;-86
2022/02/26 07:33:25;;;;;;;15.57;7.95;;;2.40;99.90;;;;;;5070016;28;20314;-85
2022/02/26 07:35:53;;;;;;;8.55;5.97;;;;;;;;;;5069915;28;20211;-85
2022/02/26 07:38:20;;;;;;;13.18;7.07;;;2.50;99.90;;;;;;5064730;28;20294;-84
2022/02/26 07:40:47;;;;;;;7.90;6.88;;;2.60;99.90;;;;;;5068678;28;20191;-85
2022/02/26 07:43:13;;;;;;;12.63;7.95;;;2.60;99.90;;;;;;5069397;28;20666;-85
2022/02/26 07:45:40;;;;;;;16.25;6.13;;;3.00;99.90;;;;;;5069895;28;20200;-86
2022/02/26 07:48:08;;;;;;;11.63;6.32;;;2.50;99.90;;;;;;5069417;28;20239;-85
2022/02/26 07:50:36;;;;;;;10.70;6.70;;;2.50;99.90;;;;;;5069416;28;20204;-84
2022/02/26 07:53:04;;;;;;;13.27;8.05;;;3.00;99.90;;;;;;5069883;28;20215;-86
2022/02/26 07:55:34;;;;;;;14.43;6.50;;;2.70;99.90;;;;;;5066570;28;20231;-86
2022/02/26 07:58:01;;;;;;;9.73;7.13;;;2.40;99.90;;;;;;5064151;28;20203;-86
2022/02/26 08:00:28;;;;;;;9.77;6.65;;;2.80;99.90;;;;;;5069349;28;20204;-86
2022/02/26 08:02:55;;;;;;;14.43;7.22;;;2.90;99.90;;;;;;5068101;28;20210;-86
2022/02/26 08:05:22;;;;;;;14.23;6.70;;;3.00;99.90;;;;;;5069918;28;20616;-86
2022/02/26 08:07:51;;;;;;;19.30;6.90;;;2.50;99.90;;;;;;5068682;28;20199;-86
2022/02/26 08:10:20;;;;;;;12.52;7.30;;;3.00;99.90;;;;;;5069591;28;20195;-85
2022/02/26 08:12:47;;;;;;;16.80;8.25;;;3.20;99.90;;;;;;5069893;28;20786;-86
2022/02/26 08:15:14;;;;;;;13.73;6.68;;;3.40;99.90;;;;;;5069598;28;20202;-85
2022/02/26 08:17:43;;;;;;;15.05;7.40;;;3.20;99.90;;;;;;5069351;28;20633;-86
2022/02/26 08:20:12;;;;;;;17.17;7.47;;;3.20;99.90;;;;;;5069906;28;20287;-85
2022/02/26 08:22:40;;;;;;;12.10;6.80;;;3.30;99.90;;;;;;5069940;28;20223;-85
2022/02/26 08:25:10;;;;;;;12.50;7.40;;;3.20;99.70;;;;;;5067854;28;20249;-85
2022/02/26 08:27:37;;;;;;;15.98;8.15;;;3.20;99.90;;;;;;5065870;28;20792;-86
2022/02/26 08:30:04;;;;;;;9.82;8.02;;;3.10;99.90;;;;;;5065858;28;20203;-87
2022/02/26 08:32:31;;;;;;;12.20;7.18;;;3.30;99.00;;;;;;5069599;28;20502;-86
2022/02/26 08:34:58;;;;;;;21.23;7.57;;;3.60;99.90;;;;;;5069243;28;20262;-85
2022/02/26 08:37:25;;;;;;;11.57;7.47;;;3.60;98.40;;;;;;5063268;28;20407;-86
2022/02/26 08:39:52;;;;;;;10.70;5.75;;;4.00;99.90;;;;;;5068152;28;20211;-85
2022/02/26 08:42:24;;;;;;;10.88;6.60;;;4.20;98.80;;;;;;5068139;28;20273;-85
2022/02/26 08:44:52;;;;;;;10.65;7.05;;;;;;;;;;5068749;28;20273;-85
2022/02/26 08:47:19;;;;;;;15.52;7.50;;;3.80;99.90;;;;;;5068520;28;20310;-85
2022/02/26 08:49:46;;;;;;;13.13;7.50;;;;;;;;;;5068992;28;20222;-85
2022/02/26 08:52:13;;;;;;;12.52;8.27;;;4.00;99.20;;;;;;5068926;28;20199;-85
2022/02/26 08:54:40;;;;;;;9.00;7.40;;;3.90;99.90;;;;;;5068952;28;20242;-85
2022/02/26 08:57:07;;;;;;;10.57;6.15;;;;;;;;;;5067910;28;20203;-85
2022/02/26 08:59:36;;;;;;;15.88;7.15;;;3.80;99.90;;;;;;5069523;28;20207;-85
2022/02/26 09:02:03;;;;;;;10.70;5.35;;;4.10;96.50;;;;;;5069272;28;20261;-85
2022/02/26 09:04:30;;;;;;;9.45;6.95;;;4.20;95.60;;;;;;5049027;28;20236;-84
2022/02/26 09:06:57;;;;;;;9.27;6.22;;;4.20;95.40;;;;;;5049310;28;20481;-85
2022/02/26 09:09:24;;;;;;;9.02;6.68;;;4.20;95.70;;;;;;5049051;28;20246;-85
2022/02/26 09:11:50;;;;;;;8.82;6.03;;;4.30;99.90;;;;;;5048447;28;20266;-85
2022/02/26 09:14:18;;;;;;;8.52;4.95;;;4.30;95.20;;;;;;5048854;28;20242;-86
2022/02/26 09:16:46;;;;;;;9.13;5.20;;;4.40;93.40;;;;;;5048816;28;20235;-86
2022/02/26 09:19:13;;;;;;;5.40;4.40;;;4.40;93.50;;;;;;5049207;28;20199;-85
2022/02/26 09:21:40;;;;;;;6.15;4.35;;;4.50;93.30;;;;;;5049050;28;20544;-85
2022/02/26 09:24:07;;;;;;;9.05;6.03;;;4.60;96.80;;;;;;5048757;28;20282;-86
2022/02/26 09:26:34;;;;;;;11.48;4.65;;;4.80;93.50;;;;;;5049084;28;20239;-86
2022/02/26 09:29:01;;;;;;;17.77;4.50;;;4.80;92.20;;;;;;5049024;28;20269;-85
2022/02/26 09:31:28;;;;;;;8.70;3.75;;;4.80;91.40;;;;;;5049180;28;20535;-85
2022/02/26 09:33:56;;;;;;;13.77;4.75;;;4.80;90.20;;;;;;5048622;28;20259;-84
2022/02/26 09:36:23;;;;;;;5.68;3.53;;;4.70;90.40;;;;;;5048201;28;20287;-84
2022/02/26 09:38:51;;;;;;;6.78;4.15;;;4.80;89.90;;;;;;5047226;28;20204;-84
2022/02/26 09:41:18;;;;;;;5.68;3.78;;;4.90;90.80;;;;;;5062796;28;20265;-85
2022/02/26 09:43:45;;;;;;;4.22;2.70;;;5.10;90.10;;;;;;5068814;28;20299;-84
2022/02/26 09:46:12;;;;;;;5.40;2.90;;;5.10;87.30;;;;;;5068124;28;20288;-84
2022/02/26 09:48:39;;;;;;;5.90;3.20;;;5.10;85.00;;;;;;5068698;28;20211;-85
2022/02/26 09:51:07;;;;;;;4.47;3.15;;;5.10;82.30;;;;;;5068085;28;20231;-85
2022/02/26 09:53:34;;;;;;;5.30;3.58;;;5.10;83.00;;;;;;5068275;28;20318;-84
2022/02/26 09:56:01;;;;;;;5.07;3.15;;;5.10;84.30;;;;;;5068315;28;20535;-85
2022/02/26 09:58:28;;;;;;;3.42;2.90;;;5.80;93.70;;;;;;5067893;28;20800;-86
2022/02/26 10:00:55;;;;;;;7.25;2.80;;;4.90;83.10;;;;;;5068378;28;20253;-84
2022/02/26 10:03:26;;;;;;;3.97;2.80;;;4.80;82.30;;;;;;5057748;28;20594;-85
2022/02/26 10:06:05;;;;;;;5.10;2.90;;;5.00;93.00;;;;;;5047784;28;20211;-85
2022/02/26 10:08:37;;;;;;;7.50;3.42;;;4.80;81.00;;;;;;5048564;28;20296;-85
2022/02/26 10:11:05;;;;;;;7.53;2.60;;;4.70;81.00;;;;;;5047908;28;20720;-85
2022/02/26 10:13:39;;;;;;;6.28;3.55;;;4.70;81.60;;;;;;5048107;28;20220;-85
2022/02/26 10:16:06;;;;;;;6.85;3.53;;;4.90;81.10;;;;;;5047875;28;20207;-85
2022/02/26 10:18:33;;;;;;;5.18;2.70;;;4.70;93.40;;;;;;5047747;28;20214;-86
2022/02/26 10:21:02;;;;;;;4.93;2.60;;;4.70;81.20;;;;;;5048136;28;20295;-85
2022/02/26 10:23:29;;;;;;;5.97;2.25;;;4.70;80.80;;;;;;5048462;28;20218;-86
2022/02/26 10:26:08;;;;;;;4.45;2.20;;;4.70;91.70;;;;;;5048169;28;20257;-85
2022/02/26 10:28:40;;;;;;;3.10;1.63;;;4.90;89.40;;;;;;5048491;28;20211;-85
2022/02/26 10:31:08;;;;;;;5.85;2.20;;;4.70;77.30;;;;;;5048448;28;20614;-86
2022/02/26 10:33:35;;;;;;;1.83;1.73;;;4.80;77.70;;;;;;5048962;28;20228;-85
2022/02/26 10:36:08;;;;;;;4.60;1.80;;;5.20;77.20;;;;;;5048503;28;20215;-85
2022/02/26 10:38:37;;;;;;;4.93;1.35;;;4.90;77.30;;;;;;5048304;28;20204;-84
2022/02/26 10:41:06;;;;;;;5.10;1.90;;;5.10;76.10;;;;;;5061456;28;20282;-85
2022/02/26 10:43:47;;;;;;;4.88;2.67;;;5.20;73.40;;;;;;5073461;28;20195;-84
2022/02/26 10:46:23;;;;;;;2.50;1.63;;;5.20;73.10;;;;;;5072956;28;20226;-84
2022/02/26 10:48:52;;;;;;;3.95;2.00;;;5.40;88.40;;;;;;5068292;28;20241;-86
2022/02/26 10:51:22;;;;;;;4.65;1.98;;;5.30;71.80;;;;;;5067565;28;20293;-84
2022/02/26 10:53:49;;;;;;;2.22;2.03;;;6.00;87.70;;;;;;5067203;28;20258;-85
2022/02/26 10:56:16;;;;;;;4.38;2.33;;;5.40;71.50;;;;;;5067454;28;20239;-85
2022/02/26 10:58:45;;;;;;;3.58;2.20;;;5.60;77.70;;;;;;5067997;28;20231;-85
2022/02/26 11:01:15;;;;;;;9.38;2.17;;;5.60;71.20;;;;;;5067611;28;20195;-85
2022/02/26 11:03:43;;;;;;;5.38;1.60;;;5.50;85.90;;;;;;5054265;28;20204;-85
2022/02/26 11:06:11;;;;;;;3.67;2.33;;;5.80;80.90;;;;;;5047127;28;20705;-84
2022/02/26 11:08:40;;;;;;;5.18;2.72;;;5.80;72.10;;;;;;5047878;28;20219;-85
2022/02/26 11:11:08;;;;;;;4.68;1.98;;;6.10;71.40;;;;;;5047428;28;20200;-84
2022/02/26 11:13:37;;;;;;;9.65;2.70;;;6.20;69.20;;;;;;5047385;28;20285;-86
2022/02/26 11:16:07;;;;;;;8.70;2.30;;;6.30;67.30;;;;;;5047484;28;20204;-85
2022/02/26 11:18:40;;;;;;;7.00;2.38;;;6.30;82.40;;;;;;5047148;28;20366;-85
2022/02/26 11:21:09;;;;;;;2.90;1.88;;;6.20;67.70;;;;;;5047775;28;20307;-85
2022/02/26 11:23:38;;;;;;;8.13;2.65;;;6.00;84.60;;;;;;5047471;28;20196;-85
2022/02/26 11:26:07;;;;;;;1.92;1.67;;;6.20;80.60;;;;;;5047411;28;20450;-85
2022/02/26 11:28:35;;;;;;;3.55;2.00;;;6.20;66.90;;;;;;5047237;28;20295;-85
2022/02/26 11:31:07;;;;;;;4.50;1.80;;;6.30;67.80;;;;;;5047144;28;20196;-85
2022/02/26 11:33:35;;;;;;;4.75;1.88;;;6.40;67.00;;;;;;5047423;28;20212;-84
2022/02/26 11:36:02;;;;;;;2.45;1.83;;;6.50;66.20;;;;;;5049403;28;20239;-86
2022/02/26 11:38:32;;;;;;;3.90;2.28;;;6.50;69.10;;;;;;5050038;28;20667;-85
2022/02/26 11:41:19;;;;;;;5.65;3.67;;;6.20;68.70;;;;;;5062591;28;20219;-85
2022/02/26 11:43:47;;;;;;;4.75;3.00;;;6.40;88.10;;;;;;5070143;28;20211;-85
2022/02/26 11:46:39;;;;;;;6.13;3.20;;;6.30;71.70;;;;;;5070707;28;20257;-87
2022/02/26 11:49:18;;;;;;;5.03;2.90;;;6.60;88.70;;;;;;5066995;28;20222;-85
2022/02/26 11:51:46;;;;;;;4.35;2.35;;;6.50;73.20;;;;;;5070840;28;20200;-85
2022/02/26 11:54:17;;;;;;;4.82;2.60;;;5.90;87.90;;;;;;5070078;28;20229;-86
2022/02/26 11:56:46;;;;;;;3.53;2.63;;;6.10;72.30;;;;;;5070360;28;20203;-85
2022/02/26 11:59:13;;;;;;;3.08;2.45;;;6.40;82.50;;;;;;5070672;28;20242;-85
2022/02/26 12:02:06;;;;;;;6.63;2.45;;;6.20;70.80;;;;;;5070808;28;20242;-86
2022/02/26 12:04:44;;;;;;;4.72;2.15;;;6.30;75.60;;;;;;5050391;28;20212;-86
2022/02/26 12:07:11;;;;;;;7.78;2.25;;;6.10;75.00;;;;;;5049787;28;20215;-86
2022/02/26 12:10:00;;;;;;;5.43;2.78;;;5.80;86.10;;;;;;5050538;28;20225;-86
2022/02/26 12:12:37;;;;;;;7.57;3.80;;;5.80;69.70;;;;;;5050394;28;20212;-86
2022/02/26 12:15:13;;;;;;;6.90;2.10;;;6.10;82.80;;;;;;5049787;28;20236;-86
2022/02/26 12:17:45;;;;;;;2.78;2.35;;;6.20;68.00;;;;;;5050038;28;20242;-86
2022/02/26 12:20:16;;;;;;;5.85;2.30;;;6.30;69.50;;;;;;5050440;28;20208;-86
2022/02/26 12:22:47;;;;;;;4.65;2.75;;;6.50;68.90;;;;;;5050081;28;20242;-86
2022/02/26 12:25:16;;;;;;;3.67;2.55;;;6.60;66.00;;;;;;5049811;28;20871;-86
2022/02/26 12:27:43;;;;;;;4.45;2.20;;;6.50;66.40;;;;;;5049193;28;20204;-87
2022/02/26 12:30:12;;;;;;;3.22;2.20;;;6.50;69.50;;;;;;5050137;28;20205;-86
2022/02/26 12:32:57;;;;;;;6.90;3.22;;;6.50;68.90;;;;;;5050252;28;20212;-86
2022/02/26 12:35:25;;;;;;;2.05;1.73;;;6.50;70.90;;;;;;5050181;28;20259;-86
2022/02/26 12:37:52;;;;;;;11.85;2.65;;;6.50;67.90;;;;;;5047859;28;20297;-86
2022/02/26 12:40:21;;;;;;;8.20;2.28;;;6.40;68.50;;;;;;5049873;28;20265;-86
2022/02/26 12:42:50;;;;;;;7.88;2.35;;;6.30;67.40;;;;;;5049944;28;20234;-85
2022/02/26 12:45:19;;;;;;;4.75;2.50;;;6.20;66.80;;;;;;5050026;28;20273;-87
2022/02/26 12:47:47;;;;;;;4.25;1.95;;;6.20;69.00;;;;;;5048030;28;20682;-86
2022/02/26 12:50:18;;;;;;;2.95;1.90;;;6.50;68.60;;;;;;5049375;28;20211;-85
2022/02/26 12:52:45;;;;;;;4.78;2.30;;;6.70;67.50;;;;;;5049667;28;20291;-86
2022/02/26 12:55:14;;;;;;;7.85;2.70;;;6.90;69.60;;;;;;5049431;28;20559;-86
2022/02/26 12:57:43;;;;;;;5.22;2.28;;;6.70;64.30;;;;;;5049266;28;20212;-86
2022/02/26 13:00:13;;;;;;;4.15;2.45;;;6.80;64.60;;;;;;5049371;28;20687;-85
2022/02/26 13:02:51;;;;;;;6.55;2.65;;;6.90;64.80;;;;;;5054023;28;20299;-86
2022/02/26 13:05:19;;;;;;;4.60;1.92;;;6.90;64.60;;;;;;5069506;28;20215;-86
2022/02/26 13:07:46;;;;;;;6.97;2.22;;;6.90;63.90;;;;;;5068715;28;20303;-87
2022/02/26 13:10:13;;;;;;;5.88;1.90;;;6.70;78.20;;;;;;5068077;28;20208;-87